createdAt,value
2022-10-19T00:45:53.707Z,23.40
2022-10-19T00:48:28.187Z,23.50
2022-10-19T00:50:59.606Z,23.30
2022-10-19T00:53:31.420Z,23.40
2022-10-19T00:56:02.127Z,23.40
2022-10-19T00:58:31.530Z,23.40
2022-10-19T01:47:49.162Z,23.40
2022-10-19T01:50:25.759Z,23.40
2022-10-19T01:52:56.645Z,23.40
2022-10-19T01:55:27.621Z,23.80
2022-10-19T01:58:02.541Z,23.50
2022-10-19T02:47:48.198Z,23.30
2022-10-19T02:50:18.005Z,23.30
2022-10-19T02:52:46.322Z,23.30
2022-10-19T02:55:14.784Z,23.30
2022-10-19T02:57:42.981Z,23.30
2022-10-19T03:47:01.444Z,23.30
2022-10-19T03:49:29.706Z,23.30
2022-10-19T03:51:57.879Z,23.40
2022-10-19T03:54:27.455Z,23.30
2022-10-19T03:56:55.856Z,23.30
2022-10-19T03:59:24.362Z,23.30
2022-10-19T04:30:18.643Z,23.30
2022-10-19T04:32:46.950Z,23.70
2022-10-19T04:35:15.399Z,23.50
2022-10-19T04:37:43.539Z,23.50
2022-10-19T04:40:15.035Z,23.50
2022-10-19T04:42:43.465Z,23.50
2022-10-19T04:45:12.479Z,23.50
2022-10-19T04:47:42.041Z,23.50
2022-10-19T04:50:10.926Z,23.40
2022-10-19T04:52:39.371Z,23.40
2022-10-19T04:55:08.427Z,23.40
2022-10-19T04:57:36.739Z,23.40
2022-10-19T05:00:06.923Z,23.40
2022-10-19T05:02:35.196Z,23.40
2022-10-19T05:05:05.231Z,23.40
2022-10-19T05:07:33.606Z,23.40
2022-10-19T05:10:02.169Z,23.50
2022-10-19T05:12:30.325Z,23.50
2022-10-19T05:14:58.525Z,23.40
2022-10-19T05:17:26.797Z,23.40
2022-10-19T05:19:55.052Z,23.60
2022-10-19T05:22:24.744Z,23.50
2022-10-19T05:24:55.872Z,23.50
2022-10-19T05:27:26.333Z,23.60
2022-10-19T05:29:54.670Z,23.50
2022-10-19T05:32:22.788Z,23.40
2022-10-19T05:34:50.942Z,23.40
2022-10-19T05:37:19.214Z,23.50
2022-10-19T05:39:48.950Z,23.40
2022-10-19T05:42:17.400Z,23.50
2022-10-19T05:44:45.693Z,23.40
2022-10-19T05:47:13.850Z,23.60
2022-10-19T05:49:42.146Z,23.40
2022-10-19T05:52:10.437Z,23.40
2022-10-19T05:54:39.111Z,23.30
2022-10-19T05:57:08.878Z,23.30
2022-10-19T05:59:37.132Z,23.50
2022-10-19T06:02:05.479Z,23.30
2022-10-19T06:04:34.326Z,23.50
2022-10-19T06:07:02.871Z,23.50
2022-10-19T06:09:35.861Z,23.60
2022-10-19T06:12:04.819Z,23.60
2022-10-19T06:14:34.474Z,23.60
2022-10-19T06:17:02.881Z,23.60
2022-10-19T06:19:31.248Z,23.60
2022-10-19T06:21:59.544Z,23.60
2022-10-19T06:24:27.885Z,23.50
2022-10-19T06:26:56.187Z,23.50
2022-10-19T06:29:24.452Z,23.50
2022-10-19T06:31:55.993Z,23.50
2022-10-19T06:34:24.411Z,23.50
2022-10-19T06:36:52.778Z,23.40
2022-10-19T06:39:20.965Z,23.40
2022-10-19T06:41:49.205Z,23.40
2022-10-19T06:44:21.095Z,23.40
2022-10-19T06:46:49.555Z,23.40
2022-10-19T06:49:19.716Z,23.70
2022-10-19T06:51:47.897Z,23.40
2022-10-19T06:54:16.290Z,23.40
2022-10-19T06:56:44.697Z,23.40
2022-10-19T06:59:14.833Z,23.40
2022-10-19T07:01:43.243Z,23.40
2022-10-19T07:04:11.549Z,23.40
2022-10-19T07:06:41.415Z,23.40
2022-10-19T07:09:09.691Z,23.40
2022-10-19T07:11:39.537Z,23.80
2022-10-19T07:14:10.261Z,23.40
2022-10-19T07:16:38.548Z,23.50
2022-10-19T07:19:06.880Z,23.40
2022-10-19T07:21:41.003Z,23.50
2022-10-19T07:24:11.064Z,23.50
2022-10-19T07:26:39.842Z,23.50
2022-10-19T07:29:08.086Z,23.40
2022-10-19T07:31:36.589Z,23.40
2022-10-19T07:34:06.949Z,23.40
2022-10-19T07:36:36.970Z,23.40
2022-10-19T07:39:06.503Z,23.40
2022-10-19T07:41:36.206Z,23.40
2022-10-19T07:44:05.310Z,23.40
2022-10-19T07:46:35.766Z,23.40
2022-10-19T07:49:06.314Z,23.30
2022-10-19T07:51:35.143Z,23.30
2022-10-19T07:54:04.311Z,23.30
2022-10-19T07:56:33.638Z,23.30
2022-10-19T07:59:04.967Z,23.40
2022-10-19T08:01:42.234Z,23.30
2022-10-19T08:06:58.597Z,23.80
2022-10-19T08:09:51.669Z,23.30
2022-10-19T08:12:15.881Z,23.30
2022-10-19T08:14:45.328Z,23.30
2022-10-19T08:17:16.717Z,23.30
2022-10-19T08:19:45.281Z,23.30
2022-10-19T08:22:13.607Z,23.30
2022-10-19T08:24:41.862Z,23.30
2022-10-19T08:27:10.009Z,23.30
2022-10-19T08:29:38.209Z,23.30
2022-10-19T08:32:07.876Z,23.30
2022-10-19T08:34:36.171Z,23.30
2022-10-19T08:37:14.649Z,23.50
2022-10-19T08:39:53.289Z,23.30
2022-10-19T08:42:27.920Z,23.30
2022-10-19T08:45:33.376Z,23.40
2022-10-19T08:48:27.942Z,23.30
2022-10-19T08:50:58.372Z,23.30
2022-10-19T08:53:39.350Z,23.30
2022-10-19T08:56:45.741Z,23.30
2022-10-19T08:59:24.961Z,23.30
2022-10-19T09:01:56.905Z,23.50
2022-10-19T09:04:32.220Z,23.30
2022-10-19T09:07:25.051Z,23.30
2022-10-19T09:09:59.579Z,23.30
2022-10-19T09:12:41.878Z,23.30
2022-10-19T09:15:14.564Z,23.30
2022-10-19T09:17:42.799Z,23.60
2022-10-19T09:20:22.700Z,23.60
2022-10-19T09:23:02.999Z,23.40
2022-10-19T09:25:32.226Z,23.40
2022-10-19T09:28:15.537Z,23.40
2022-10-19T09:30:45.640Z,23.40
2022-10-19T09:33:24.605Z,23.60
2022-10-19T09:35:56.645Z,23.40
2022-10-19T09:38:29.323Z,23.40
2022-10-19T09:40:59.116Z,23.40
2022-10-19T09:43:28.250Z,23.40
2022-10-19T09:46:13.916Z,23.40
2022-10-19T09:48:50.710Z,23.70
2022-10-19T09:51:21.894Z,23.30
2022-10-19T09:53:53.771Z,23.30
2022-10-19T09:56:24.088Z,23.30
2022-10-19T09:58:55.513Z,24.00
2022-10-19T10:01:41.602Z,23.30
2022-10-19T10:04:16.315Z,23.30
2022-10-19T10:06:49.636Z,23.30
2022-10-19T10:09:19.779Z,23.30
2022-10-19T10:11:50.876Z,23.20
2022-10-19T10:14:24.518Z,23.30
2022-10-19T10:16:57.678Z,23.30
2022-10-19T10:19:30.303Z,23.30
2022-10-19T10:22:01.281Z,23.50
2022-10-19T10:24:31.007Z,23.30
2022-10-19T10:27:01.571Z,23.20
2022-10-19T10:29:32.480Z,23.60
2022-10-19T10:32:06.261Z,23.30
2022-10-19T10:34:49.803Z,23.30
2022-10-19T10:37:23.914Z,23.30
2022-10-19T10:39:56.695Z,23.30
2022-10-19T10:42:34.926Z,23.40
2022-10-19T10:45:03.997Z,23.50
2022-10-19T10:47:32.944Z,23.40
2022-10-19T10:50:05.904Z,23.40
2022-10-19T10:52:37.155Z,23.40
2022-10-19T10:55:19.058Z,23.30
2022-10-19T10:57:50.922Z,23.30
2022-10-19T11:00:24.002Z,23.50
2022-10-19T11:02:59.438Z,23.20
2022-10-19T11:05:32.205Z,23.30
2022-10-19T11:08:08.170Z,23.50
2022-10-19T11:10:45.280Z,22.80
2022-10-19T11:13:19.480Z,23.30
2022-10-19T11:15:56.072Z,23.60
2022-10-19T11:18:30.780Z,23.60
2022-10-19T11:21:09.885Z,23.30
2022-10-19T11:23:56.231Z,23.30
2022-10-19T11:26:53.904Z,23.30
2022-10-19T11:29:44.296Z,23.30
2022-10-19T11:32:23.789Z,23.30
2022-10-19T11:35:10.220Z,23.40
2022-10-19T11:37:50.098Z,23.30
2022-10-19T11:40:45.794Z,23.30
2022-10-19T11:43:31.617Z,23.40
2022-10-19T11:46:10.527Z,23.40
2022-10-19T11:49:12.911Z,23.40
2022-10-19T11:51:49.796Z,23.30
2022-10-19T11:54:39.828Z,23.40
2022-10-19T11:57:17.187Z,23.30
2022-10-19T12:00:14.503Z,23.30
2022-10-19T12:03:27.584Z,23.30
2022-10-19T12:06:09.094Z,23.40
2022-10-19T12:09:00.347Z,23.30
2022-10-19T12:11:42.618Z,23.40
2022-10-19T12:14:17.483Z,23.30
2022-10-19T12:16:50.043Z,23.20
2022-10-19T12:19:22.970Z,23.00
2022-10-19T12:21:54.571Z,23.30
2022-10-19T12:24:26.832Z,23.30
2022-10-19T12:26:56.403Z,23.20
2022-10-19T12:29:29.889Z,23.30
2022-10-19T12:32:01.005Z,23.30
2022-10-19T12:34:41.911Z,23.30
2022-10-19T12:37:18.970Z,23.30
2022-10-19T12:39:54.243Z,23.30
2022-10-19T12:42:29.798Z,23.30
2022-10-19T12:45:25.192Z,23.30
2022-10-19T12:48:29.391Z,23.70
2022-10-19T12:51:21.286Z,23.40
2022-10-19T12:53:50.347Z,23.40
2022-10-19T12:56:24.160Z,23.50
2022-10-19T12:58:57.618Z,23.50
2022-10-19T13:01:30.351Z,23.30
2022-10-19T13:04:11.910Z,23.40
2022-10-19T13:06:44.683Z,23.40
2022-10-19T13:09:25.636Z,23.30
2022-10-19T13:12:44.318Z,23.50
2022-10-19T13:15:59.091Z,23.30
2022-10-19T13:19:21.038Z,23.30
2022-10-19T13:22:29.603Z,23.30
2022-10-19T13:25:28.051Z,23.30
2022-10-19T13:28:01.092Z,23.30
2022-10-19T13:31:07.023Z,23.30
2022-10-19T13:33:49.321Z,23.30
2022-10-19T13:36:19.782Z,23.20
2022-10-19T13:39:06.128Z,23.40
2022-10-19T13:41:53.317Z,23.30
2022-10-19T13:44:30.172Z,23.30
2022-10-19T13:50:27.863Z,23.30
2022-10-19T13:53:25.862Z,23.30
2022-10-19T13:56:27.105Z,23.30
2022-10-19T13:59:37.840Z,23.40
2022-10-19T14:03:08.050Z,23.40
2022-10-19T14:06:18.461Z,23.40
2022-10-19T14:09:30.081Z,23.40
2022-10-19T14:12:07.267Z,23.40
2022-10-19T14:14:47.065Z,23.40
2022-10-19T14:19:55.384Z,23.50
2022-10-19T14:22:30.172Z,23.30
2022-10-19T14:25:07.743Z,23.30
2022-10-19T14:27:36.675Z,23.30
2022-10-19T14:30:06.998Z,23.50
2022-10-19T14:32:36.250Z,23.20
2022-10-19T14:35:16.473Z,23.30
2022-10-19T14:37:45.622Z,23.40
2022-10-19T14:40:29.193Z,23.50
2022-10-19T14:42:59.378Z,23.30
2022-10-19T14:45:30.875Z,23.40
2022-10-19T14:48:02.486Z,23.40
2022-10-19T14:50:44.642Z,23.40
2022-10-19T14:53:35.630Z,23.40
2022-10-19T14:56:09.520Z,23.40
2022-10-19T14:58:42.658Z,23.40
2022-10-19T15:01:12.979Z,23.40
2022-10-19T15:03:44.809Z,23.40
2022-10-19T15:06:22.549Z,23.40
2022-10-19T15:11:29.682Z,23.50
2022-10-19T15:14:02.446Z,23.30
2022-10-19T15:16:47.365Z,23.30
2022-10-19T15:19:26.033Z,23.30
2022-10-19T15:22:30.577Z,23.40
2022-10-19T15:25:02.859Z,23.40
2022-10-19T15:27:34.974Z,23.40
2022-10-19T15:30:07.035Z,23.40
2022-10-19T15:32:38.760Z,23.40
2022-10-19T15:35:13.650Z,23.40
2022-10-19T15:37:45.502Z,23.50
2022-10-19T15:40:20.563Z,23.40
2022-10-19T15:42:50.400Z,23.40
2022-10-19T15:45:37.010Z,23.30
2022-10-19T15:48:28.427Z,23.50
2022-10-19T15:50:58.062Z,23.40
2022-10-19T15:53:27.190Z,23.40
2022-10-19T15:55:55.407Z,23.40
2022-10-19T15:58:25.402Z,23.40
2022-10-19T16:00:53.717Z,23.30
2022-10-19T16:03:23.146Z,23.70
2022-10-19T16:05:51.321Z,23.30
2022-10-19T16:08:19.547Z,23.30
2022-10-19T16:10:47.803Z,23.30
2022-10-19T16:13:16.075Z,23.30
2022-10-19T16:15:53.292Z,23.30
2022-10-19T16:18:29.625Z,22.80
2022-10-19T16:20:58.187Z,23.30
2022-10-19T16:23:27.200Z,23.40
2022-10-19T16:25:56.210Z,23.90
2022-10-19T16:28:24.474Z,23.40
2022-10-19T16:30:55.160Z,23.20
2022-10-19T16:33:23.997Z,23.40
2022-10-19T16:35:52.339Z,23.50
2022-10-19T16:38:21.113Z,23.40
2022-10-19T16:40:49.369Z,23.50
2022-10-19T16:43:17.872Z,23.50
2022-10-19T16:45:46.198Z,23.40
2022-10-19T16:48:15.867Z,23.30
2022-10-19T16:50:44.689Z,23.50
2022-10-19T16:53:14.281Z,23.50
2022-10-19T16:55:42.959Z,23.50
2022-10-19T16:58:11.618Z,23.50
2022-10-19T17:00:40.979Z,23.50
2022-10-19T17:03:10.432Z,23.50
2022-10-19T17:05:40.551Z,23.50
2022-10-19T17:08:11.705Z,23.60
2022-10-19T17:10:39.945Z,23.60
2022-10-19T17:13:08.086Z,23.50
2022-10-19T17:15:42.896Z,23.60
2022-10-19T17:18:11.972Z,23.50
2022-10-19T17:20:42.177Z,23.50
2022-10-19T17:23:11.208Z,23.50
2022-10-19T17:25:47.114Z,23.50
2022-10-19T17:28:16.688Z,23.50
2022-10-19T17:30:45.205Z,23.60
2022-10-19T17:33:13.631Z,23.80
2022-10-19T17:35:43.340Z,23.70
2022-10-19T17:38:11.905Z,23.80
2022-10-19T17:40:40.556Z,23.60
2022-10-19T17:43:09.355Z,23.80
2022-10-19T17:45:38.045Z,23.90
2022-10-19T17:48:08.319Z,23.90
2022-10-19T17:50:36.786Z,23.90
2022-10-19T17:53:06.296Z,23.90
2022-10-19T17:55:38.155Z,24.00
2022-10-19T17:58:06.941Z,24.00
2022-10-19T18:00:36.164Z,24.00
2022-10-19T18:03:05.285Z,24.00
2022-10-19T18:05:33.715Z,24.00
2022-10-19T18:08:02.002Z,24.00
2022-10-19T18:10:32.719Z,24.00
2022-10-19T18:13:04.553Z,24.00
2022-10-19T18:15:33.226Z,24.00
2022-10-19T18:18:01.654Z,23.90
2022-10-19T18:20:30.645Z,24.00
2022-10-19T18:22:59.238Z,24.00
2022-10-19T18:25:49.208Z,24.10
2022-10-19T18:28:18.549Z,24.10
2022-10-19T18:30:47.116Z,24.20
2022-10-19T18:33:15.764Z,24.30
2022-10-19T18:35:44.403Z,24.30
2022-10-19T18:38:13.233Z,24.40
2022-10-19T18:40:41.492Z,24.30
2022-10-19T18:43:10.851Z,24.40
2022-10-19T18:45:52.255Z,24.30
2022-10-19T18:48:21.098Z,24.30
2022-10-19T18:50:50.354Z,24.70
2022-10-19T18:53:19.137Z,24.40
2022-10-19T18:55:49.037Z,24.50
2022-10-19T18:58:18.657Z,24.70
2022-10-19T19:00:49.221Z,24.70
2022-10-19T19:03:20.546Z,24.70
2022-10-19T19:05:48.886Z,24.80
2022-10-19T19:08:17.609Z,24.80
2022-10-19T19:10:46.322Z,24.80
2022-10-19T19:13:14.755Z,24.80
2022-10-19T19:15:42.978Z,24.90
2022-10-19T19:18:12.724Z,24.80
2022-10-19T19:20:42.980Z,24.70
2022-10-19T19:23:11.438Z,24.80
2022-10-19T19:25:41.662Z,24.60
2022-10-19T19:28:10.120Z,24.60
2022-10-19T19:30:42.201Z,24.50
2022-10-19T19:33:11.830Z,24.50
2022-10-19T19:35:44.122Z,24.50
2022-10-19T19:38:14.451Z,24.60
2022-10-19T19:40:45.012Z,24.50
2022-10-19T19:43:15.693Z,24.70
2022-10-19T19:45:44.744Z,24.50
2022-10-19T19:48:14.428Z,24.50
2022-10-19T19:50:48.122Z,24.50
2022-10-19T19:53:17.140Z,24.50
2022-10-19T19:55:48.048Z,24.50
2022-10-19T19:58:18.827Z,24.50
2022-10-19T20:00:47.908Z,24.50
2022-10-19T20:03:17.539Z,24.40
2022-10-19T20:05:45.958Z,24.40
2022-10-19T20:08:14.318Z,24.40
2022-10-19T20:10:44.186Z,24.30
2022-10-19T20:13:12.680Z,24.30
2022-10-19T20:15:41.126Z,24.30
2022-10-19T20:18:09.626Z,24.30
2022-10-19T20:20:41.568Z,24.50
2022-10-19T20:23:09.763Z,24.20
2022-10-19T20:25:38.309Z,24.20
2022-10-19T20:28:06.584Z,24.20
2022-10-19T20:30:34.906Z,24.20
2022-10-19T20:33:03.150Z,24.10
2022-10-19T20:35:31.337Z,24.10
2022-10-19T20:38:01.182Z,24.40
2022-10-19T20:43:02.863Z,24.10
2022-10-19T20:45:31.368Z,24.10
2022-10-19T20:47:59.772Z,24.10
2022-10-19T20:50:28.486Z,24.10
2022-10-19T20:52:56.791Z,24.10
2022-10-19T20:55:26.737Z,24.10
2022-10-19T20:57:54.896Z,24.10
2022-10-19T21:00:26.454Z,24.20
2022-10-19T21:02:54.716Z,24.40
2022-10-19T21:05:23.071Z,24.10
2022-10-19T21:07:51.400Z,24.00
2022-10-19T21:10:19.786Z,24.00
2022-10-19T21:12:49.503Z,23.90
2022-10-19T21:15:18.361Z,23.90
2022-10-19T21:17:48.710Z,23.90
2022-10-19T21:20:17.028Z,24.00
2022-10-19T21:22:45.862Z,23.90
2022-10-19T21:25:14.426Z,23.90
2022-10-19T21:27:42.760Z,23.90
2022-10-19T21:30:13.431Z,23.90
2022-10-19T21:32:41.700Z,23.90
2022-10-19T21:35:10.429Z,23.90
2022-10-19T21:37:38.836Z,23.90
2022-10-19T21:40:08.856Z,23.90
2022-10-19T21:42:37.738Z,23.90
2022-10-19T21:45:25.558Z,23.90
2022-10-19T21:47:57.980Z,23.80
2022-10-19T21:50:26.312Z,23.80
2022-10-19T21:52:54.721Z,23.90
2022-10-19T21:55:25.128Z,24.50
2022-10-19T21:57:53.422Z,23.80
2022-10-19T22:00:22.531Z,23.80
2022-10-19T22:02:50.748Z,24.10
2022-10-19T22:05:20.487Z,23.70
2022-10-19T22:07:49.443Z,23.70
2022-10-19T22:10:18.357Z,23.70
2022-10-19T22:12:47.056Z,23.70
2022-10-19T22:47:31.508Z,23.70
2022-10-19T22:50:07.648Z,23.70
2022-10-19T22:52:40.984Z,23.70
2022-10-19T22:55:12.806Z,23.70
2022-10-19T22:58:06.858Z,23.70
2022-10-19T23:47:25.880Z,23.60
2022-10-19T23:49:54.328Z,23.60
2022-10-19T23:52:22.756Z,24.50
2022-10-19T23:54:52.184Z,23.50
2022-10-19T23:57:21.383Z,24.20
2022-10-19T23:59:50.366Z,24.00
